Wetterdaten: Woche 29.06.09 - 05.07.09 (KW27)
Datum Zeit Temperatur Luftfeuchte Luftdruck Niederschlag Windrichtung Wind
29.06.2009 00:00 16,8 C 95 % 1013,5 hPa 0,0 l/m N 3,3 km/h (1 Bft)
29.06.2009 01:00 16,3 C 96 % 1013,9 hPa 0,0 l/m N-NW 4,8 km/h (1 Bft)
29.06.2009 02:00 15,8 C 97 % 1014,0 hPa 0,0 l/m N 1,9 km/h (1 Bft)
29.06.2009 03:00 15,5 C 97 % 1013,9 hPa 0,0 l/m N-NW 4,0 km/h (1 Bft)
29.06.2009 04:00 15,0 C 98 % 1014,0 hPa 0,0 l/m N-NW 1,3 km/h (1 Bft)
29.06.2009 05:00 14,9 C 98 % 1014,2 hPa 0,0 l/m N-NW 4,1 km/h (1 Bft)
29.06.2009 06:00 15,2 C 99 % 1014,5 hPa 0,0 l/m N 2,8 km/h (1 Bft)
29.06.2009 07:00 15,5 C 99 % 1014,6 hPa 0,0 l/m N-NO 4,0 km/h (1 Bft)
29.06.2009 08:00 16,1 C 98 % 1014,9 hPa 0,0 l/m NO 3,7 km/h (1 Bft)
29.06.2009 09:00 17,5 C 95 % 1015,1 hPa 0,0 l/m N-NO 5,6 km/h (1 Bft)
29.06.2009 10:00 20,2 C 84 % 1015,0 hPa 0,0 l/m O-NO 9,7 km/h (2 Bft)
29.06.2009 11:00 22,1 C 73 % 1015,0 hPa 0,0 l/m NO 12,8 km/h (3 Bft)
29.06.2009 12:00 23,3 C 66 % 1014,7 hPa 0,0 l/m NO 10,6 km/h (2 Bft)
29.06.2009 13:00 24,2 C 60 % 1014,6 hPa 0,0 l/m N-NO 11,5 km/h (2 Bft)
29.06.2009 14:00 24,8 C 56 % 1014,4 hPa 0,0 l/m NO 13,8 km/h (3 Bft)
29.06.2009 15:00 25,4 C 54 % 1014,2 hPa 0,0 l/m N-NO 15,2 km/h (3 Bft)
29.06.2009 16:00 25,7 C 53 % 1014,1 hPa 0,0 l/m O-NO 15,3 km/h (3 Bft)
29.06.2009 17:00 25,6 C 52 % 1014,0 hPa 0,0 l/m O-NO 15,7 km/h (3 Bft)
29.06.2009 18:00 25,0 C 55 % 1014,2 hPa 0,0 l/m NO 13,4 km/h (3 Bft)
29.06.2009 19:00 24,4 C 57 % 1014,5 hPa 0,0 l/m NO 12,8 km/h (3 Bft)
29.06.2009 20:00 23,0 C 64 % 1014,6 hPa 0,0 l/m NO 8,0 km/h (2 Bft)
29.06.2009 21:00 20,8 C 75 % 1015,1 hPa 0,0 l/m NO 3,9 km/h (1 Bft)
29.06.2009 22:00 18,6 C 85 % 1015,8 hPa 0,0 l/m NO 1,5 km/h (1 Bft)
29.06.2009 23:00 17,4 C 90 % 1016,0 hPa 0,0 l/m N 0,4 km/h (0 Bft)
30.06.2009 00:00 16,9 C 90 % 1016,0 hPa 0,0 l/m N-NO 2,8 km/h (1 Bft)
30.06.2009 01:00 16,5 C 91 % 1016,0 hPa 0,0 l/m N-NW 3,6 km/h (1 Bft)
30.06.2009 02:00 16,2 C 92 % 1016,1 hPa 0,0 l/m N-NW 3,1 km/h (1 Bft)
30.06.2009 03:00 15,4 C 94 % 1016,3 hPa 0,0 l/m N 0,5 km/h (0 Bft)
30.06.2009 04:00 14,9 C 95 % 1016,1 hPa 0,0 l/m N 0,4 km/h (0 Bft)
30.06.2009 05:00 14,9 C 96 % 1016,0 hPa 0,0 l/m N 1,9 km/h (1 Bft)
30.06.2009 06:00 15,1 C 96 % 1016,0 hPa 0,0 l/m N 0,1 km/h (0 Bft)
30.06.2009 07:00 16,9 C 92 % 1016,5 hPa 0,0 l/m N 5,5 km/h (1 Bft)
30.06.2009 08:00 18,8 C 83 % 1016,8 hPa 0,0 l/m N-NO 4,4 km/h (1 Bft)
30.06.2009 09:00 20,9 C 76 % 1016,9 hPa 0,0 l/m O-NO 4,5 km/h (1 Bft)
30.06.2009 10:00 22,8 C 68 % 1016,9 hPa 0,0 l/m SO 7,6 km/h (2 Bft)
30.06.2009 11:00 23,2 C 64 % 1016,9 hPa 0,0 l/m NO 7,3 km/h (2 Bft)
30.06.2009 12:00 24,5 C 58 % 1016,8 hPa 0,0 l/m O-SO 8,2 km/h (2 Bft)
30.06.2009 13:00 25,6 C 53 % 1016,7 hPa 0,0 l/m O-SO 8,3 km/h (2 Bft)
30.06.2009 14:00 25,9 C 50 % 1016,2 hPa 0,0 l/m N-NO 8,6 km/h (2 Bft)
30.06.2009 15:00 26,6 C 48 % 1015,9 hPa 0,0 l/m NO 9,3 km/h (2 Bft)
30.06.2009 16:00 26,7 C 48 % 1015,7 hPa 0,0 l/m N-NO 9,3 km/h (2 Bft)
30.06.2009 17:00 26,6 C 51 % 1015,5 hPa 0,0 l/m N-NO 13,6 km/h (3 Bft)
30.06.2009 18:00 25,7 C 55 % 1015,5 hPa 0,0 l/m N-NO 14,4 km/h (3 Bft)
30.06.2009 19:00 24,2 C 61 % 1015,9 hPa 0,0 l/m N-NO 8,8 km/h (2 Bft)
30.06.2009 20:00 22,2 C 73 % 1016,2 hPa 0,0 l/m N-NO 6,0 km/h (2 Bft)
30.06.2009 21:00 21,0 C 78 % 1016,5 hPa 0,0 l/m N-NO 3,7 km/h (1 Bft)
30.06.2009 22:00 19,9 C 82 % 1017,0 hPa 0,0 l/m N 3,9 km/h (1 Bft)
30.06.2009 23:00 18,9 C 86 % 1017,2 hPa 0,0 l/m N 2,7 km/h (1 Bft)
01.07.2009 00:00 18,8 C 87 % 1017,4 hPa 0,0 l/m N-NW 7,1 km/h (2 Bft)
01.07.2009 01:00 18,5 C 86 % 1017,4 hPa 0,0 l/m N-NW 6,7 km/h (2 Bft)
01.07.2009 02:00 17,9 C 89 % 1017,3 hPa 0,0 l/m N-NW 3,6 km/h (1 Bft)
01.07.2009 03:00 16,8 C 92 % 1017,3 hPa 0,0 l/m SW 1,7 km/h (1 Bft)
01.07.2009 04:00 16,0 C 95 % 1017,1 hPa 0,0 l/m N 0,5 km/h (0 Bft)
01.07.2009 05:00 15,5 C 96 % 1016,9 hPa 0,0 l/m N 0,4 km/h (0 Bft)
01.07.2009 06:00 15,6 C 96 % 1017,1 hPa 0,0 l/m S 1,3 km/h (1 Bft)
01.07.2009 07:00 17,3 C 93 % 1017,3 hPa 0,0 l/m N 1,2 km/h (1 Bft)
01.07.2009 08:00 19,5 C 87 % 1017,5 hPa 0,0 l/m S 2,9 km/h (1 Bft)
01.07.2009 09:00 21,5 C 78 % 1017,6 hPa 0,0 l/m S-SW 5,3 km/h (1 Bft)
01.07.2009 10:00 23,6 C 69 % 1017,4 hPa 0,0 l/m NO 5,9 km/h (2 Bft)
01.07.2009 11:00 24,1 C 65 % 1017,1 hPa 0,0 l/m N 12,8 km/h (3 Bft)
01.07.2009 12:00 23,9 C 66 % 1017,1 hPa 0,0 l/m N-NO 12,7 km/h (3 Bft)
01.07.2009 13:00 22,9 C 72 % 1017,0 hPa 0,4 l/m O-SO 6,6 km/h (2 Bft)
01.07.2009 14:00 25,8 C 58 % 1016,4 hPa 0,0 l/m O 9,8 km/h (2 Bft)
01.07.2009 15:00 26,4 C 54 % 1016,2 hPa 0,0 l/m O 11,8 km/h (2 Bft)
01.07.2009 16:00 24,8 C 63 % 1016,1 hPa 1,8 l/m W 14,1 km/h (3 Bft)
01.07.2009 17:00 19,0 C 87 % 1016,1 hPa 0,4 l/m W-NW 8,8 km/h (2 Bft)
01.07.2009 18:00 20,0 C 93 % 1016,1 hPa 0,0 l/m N-NW 7,6 km/h (2 Bft)
01.07.2009 19:00 20,2 C 93 % 1016,0 hPa 0,0 l/m SW 3,2 km/h (1 Bft)
01.07.2009 20:00 19,4 C 95 % 1016,2 hPa 0,2 l/m W-SW 2,8 km/h (1 Bft)
01.07.2009 21:00 18,5 C 96 % 1016,7 hPa 0,0 l/m W-SW 1,9 km/h (1 Bft)
01.07.2009 22:00 17,9 C 97 % 1017,1 hPa 0,0 l/m NW 2,9 km/h (1 Bft)
01.07.2009 23:00 17,4 C 97 % 1017,1 hPa 0,0 l/m NW 2,7 km/h (1 Bft)
02.07.2009 00:00 17,0 C 97 % 1017,0 hPa 0,0 l/m N-NW 2,9 km/h (1 Bft)
02.07.2009 01:00 16,9 C 97 % 1016,7 hPa 0,0 l/m N-NW 2,9 km/h (1 Bft)
02.07.2009 02:00 16,2 C 97 % 1016,4 hPa 0,0 l/m N 2,1 km/h (1 Bft)
02.07.2009 03:00 15,8 C 97 % 1016,2 hPa 0,0 l/m N 0,3 km/h (0 Bft)
02.07.2009 04:00 15,1 C 98 % 1016,0 hPa 0,0 l/m N 1,1 km/h (0 Bft)
02.07.2009 05:00 14,8 C 98 % 1016,1 hPa 0,0 l/m N 0,3 km/h (0 Bft)
02.07.2009 06:00 14,8 C 99 % 1016,3 hPa 0,0 l/m N 0,7 km/h (0 Bft)
02.07.2009 07:00 16,8 C 97 % 1016,1 hPa 0,0 l/m N 1,3 km/h (1 Bft)
02.07.2009 08:00 19,2 C 88 % 1016,1 hPa 0,0 l/m N 4,7 km/h (1 Bft)
02.07.2009 09:00 21,4 C 79 % 1016,1 hPa 0,0 l/m NO 6,4 km/h (2 Bft)
02.07.2009 10:00 23,3 C 69 % 1015,7 hPa 0,0 l/m N-NO 8,8 km/h (2 Bft)
02.07.2009 11:00 24,6 C 58 % 1015,6 hPa 0,0 l/m O-NO 11,8 km/h (2 Bft)
02.07.2009 12:00 25,5 C 55 % 1015,2 hPa 0,0 l/m N-NO 10,9 km/h (2 Bft)
02.07.2009 13:00 26,2 C 51 % 1014,7 hPa 0,0 l/m N-NO 9,3 km/h (2 Bft)
02.07.2009 14:00 26,7 C 50 % 1013,9 hPa 0,0 l/m NO 10,7 km/h (2 Bft)
02.07.2009 15:00 26,9 C 50 % 1013,5 hPa 0,0 l/m N-NO 11,7 km/h (2 Bft)
02.07.2009 16:00 27,7 C 45 % 1013,2 hPa 0,0 l/m NO 12,1 km/h (2 Bft)
02.07.2009 17:00 24,8 C 55 % 1013,0 hPa 0,0 l/m N 18,4 km/h (3 Bft)
02.07.2009 18:00 20,4 C 85 % 1012,7 hPa 0,6 l/m NW 6,1 km/h (2 Bft)
02.07.2009 19:00 22,2 C 84 % 1012,6 hPa 0,0 l/m NW 4,1 km/h (1 Bft)
02.07.2009 20:00 21,5 C 88 % 1012,7 hPa 0,0 l/m NW 3,5 km/h (1 Bft)
02.07.2009 21:00 20,2 C 91 % 1013,2 hPa 0,0 l/m NW 3,2 km/h (1 Bft)
02.07.2009 22:00 19,2 C 92 % 1013,4 hPa 0,0 l/m N-NW 3,7 km/h (1 Bft)
02.07.2009 23:00 18,6 C 93 % 1013,2 hPa 0,0 l/m N-NW 2,1 km/h (1 Bft)
03.07.2009 00:00 17,9 C 95 % 1013,0 hPa 0,0 l/m N 3,6 km/h (1 Bft)
03.07.2009 01:00 17,3 C 96 % 1012,4 hPa 0,0 l/m N 0,4 km/h (0 Bft)
03.07.2009 02:00 16,6 C 96 % 1012,1 hPa 0,0 l/m N 0,4 km/h (0 Bft)
03.07.2009 03:00 16,1 C 97 % 1012,1 hPa 0,0 l/m N 1,1 km/h (0 Bft)
03.07.2009 04:00 15,7 C 97 % 1012,1 hPa 0,0 l/m N 0,8 km/h (0 Bft)
03.07.2009 05:00 15,1 C 97 % 1012,2 hPa 0,0 l/m N 0,1 km/h (0 Bft)
03.07.2009 06:00 14,9 C 97 % 1012,5 hPa 0,0 l/m N 1,1 km/h (0 Bft)
03.07.2009 07:00 15,0 C 98 % 1012,2 hPa 0,0 l/m N 1,1 km/h (0 Bft)
03.07.2009 08:00 16,6 C 96 % 1012,4 hPa 0,0 l/m S 3,8 km/h (1 Bft)
03.07.2009 09:00 20,2 C 88 % 1012,6 hPa 0,0 l/m S-SW 15,3 km/h (3 Bft)
03.07.2009 10:00 22,6 C 80 % 1012,5 hPa 0,0 l/m S-SW 20,6 km/h (4 Bft)
03.07.2009 11:00 23,4 C 76 % 1012,1 hPa 0,0 l/m S-SW 25,8 km/h (4 Bft)
03.07.2009 12:00 22,5 C 76 % 1011,9 hPa 0,0 l/m SW 16,2 km/h (3 Bft)
03.07.2009 13:00 21,6 C 84 % 1011,9 hPa 0,0 l/m SW 7,0 km/h (2 Bft)
03.07.2009 14:00 19,7 C 85 % 1011,6 hPa 0,0 l/m W-NW 18,8 km/h (3 Bft)
03.07.2009 15:00 19,9 C 84 % 1011,8 hPa 0,0 l/m W-NW 8,8 km/h (2 Bft)
03.07.2009 16:00 21,3 C 83 % 1012,0 hPa 0,0 l/m W-NW 9,0 km/h (2 Bft)
03.07.2009 17:00 20,8 C 81 % 1012,1 hPa 0,0 l/m W-NW 11,4 km/h (2 Bft)
03.07.2009 18:00 20,1 C 79 % 1012,3 hPa 0,0 l/m W 9,4 km/h (2 Bft)
03.07.2009 19:00 19,7 C 81 % 1012,1 hPa 0,0 l/m W-NW 7,2 km/h (2 Bft)
03.07.2009 20:00 19,5 C 83 % 1011,7 hPa 0,0 l/m W-SW 5,7 km/h (1 Bft)
03.07.2009 21:00 18,2 C 89 % 1011,9 hPa 0,0 l/m W-SW 3,1 km/h (1 Bft)
03.07.2009 22:00 17,7 C 91 % 1012,7 hPa 0,0 l/m N 1,2 km/h (1 Bft)
03.07.2009 23:00 16,8 C 93 % 1013,0 hPa 0,0 l/m N 0,3 km/h (0 Bft)
04.07.2009 00:00 15,8 C 96 % 1012,9 hPa 0,0 l/m N 0,0 km/h (0 Bft)
04.07.2009 01:00 15,2 C 96 % 1012,7 hPa 0,0 l/m N 0,0 km/h (0 Bft)
04.07.2009 02:00 14,8 C 97 % 1012,2 hPa 0,2 l/m N 0,8 km/h (0 Bft)
04.07.2009 03:00 14,3 C 97 % 1012,1 hPa 0,0 l/m N 1,2 km/h (1 Bft)
04.07.2009 04:00 14,0 C 98 % 1012,0 hPa 0,0 l/m N 0,3 km/h (0 Bft)
04.07.2009 05:00 13,6 C 98 % 1012,1 hPa 0,0 l/m W-SW 1,5 km/h (1 Bft)
04.07.2009 06:00 13,4 C 99 % 1012,2 hPa 0,0 l/m N 1,3 km/h (1 Bft)
04.07.2009 07:00 14,1 C 99 % 1012,2 hPa 0,0 l/m W-SW 2,5 km/h (1 Bft)
04.07.2009 08:00 15,9 C 99 % 1012,3 hPa 0,0 l/m S 3,2 km/h (1 Bft)
04.07.2009 09:00 18,1 C 92 % 1012,2 hPa 0,0 l/m S 5,7 km/h (1 Bft)
04.07.2009 10:00 20,6 C 80 % 1012,0 hPa 0,0 l/m S-SW 6,1 km/h (2 Bft)
04.07.2009 11:00 22,6 C 69 % 1011,9 hPa 0,0 l/m NW 6,9 km/h (2 Bft)
04.07.2009 12:00 24,1 C 59 % 1011,5 hPa 0,0 l/m NO 7,9 km/h (2 Bft)
04.07.2009 13:00 25,1 C 53 % 1010,9 hPa 0,0 l/m NO 8,4 km/h (2 Bft)
04.07.2009 14:00 24,9 C 54 % 1010,4 hPa 0,0 l/m NW 8,7 km/h (2 Bft)
04.07.2009 15:00 25,6 C 53 % 1010,0 hPa 0,0 l/m N-NO 9,0 km/h (2 Bft)
04.07.2009 16:00 26,1 C 48 % 1009,4 hPa 0,0 l/m NO 9,5 km/h (2 Bft)
04.07.2009 17:00 25,6 C 52 % 1009,2 hPa 0,0 l/m N-NW 13,2 km/h (3 Bft)
04.07.2009 18:00 24,8 C 55 % 1009,0 hPa 0,0 l/m N 9,1 km/h (2 Bft)
04.07.2009 19:00 24,3 C 54 % 1009,1 hPa 0,0 l/m N 7,8 km/h (2 Bft)
04.07.2009 20:00 22,3 C 65 % 1009,3 hPa 0,0 l/m NW 4,7 km/h (1 Bft)
04.07.2009 21:00 20,8 C 75 % 1009,7 hPa 0,0 l/m N 1,9 km/h (1 Bft)
04.07.2009 22:00 20,2 C 76 % 1010,1 hPa 0,0 l/m N-NW 4,1 km/h (1 Bft)
04.07.2009 23:00 19,9 C 79 % 1010,0 hPa 0,0 l/m N-NW 3,2 km/h (1 Bft)
05.07.2009 00:00 19,3 C 82 % 1009,9 hPa 0,0 l/m N-NW 2,5 km/h (1 Bft)
05.07.2009 01:00 18,1 C 87 % 1009,9 hPa 0,0 l/m S-SW 3,7 km/h (1 Bft)
05.07.2009 02:00 17,4 C 91 % 1009,8 hPa 0,0 l/m N 0,8 km/h (0 Bft)
05.07.2009 03:00 17,0 C 93 % 1009,7 hPa 0,0 l/m SW 2,4 km/h (1 Bft)
05.07.2009 04:00 17,2 C 94 % 1009,5 hPa 0,0 l/m SW 8,8 km/h (2 Bft)
05.07.2009 05:00 17,1 C 93 % 1009,3 hPa 0,0 l/m S-SW 5,9 km/h (2 Bft)
05.07.2009 06:00 17,0 C 92 % 1009,2 hPa 0,0 l/m S-SW 4,8 km/h (1 Bft)
05.07.2009 07:00 17,2 C 91 % 1009,4 hPa 0,0 l/m S-SW 2,8 km/h (1 Bft)
05.07.2009 08:00 17,9 C 89 % 1009,3 hPa 0,0 l/m S-SW 6,0 km/h (2 Bft)
05.07.2009 09:00 19,4 C 84 % 1009,4 hPa 0,0 l/m S-SO 6,5 km/h (2 Bft)
05.07.2009 10:00 21,8 C 75 % 1009,2 hPa 0,0 l/m NO 6,1 km/h (2 Bft)
05.07.2009 11:00 22,7 C 70 % 1008,8 hPa 0,0 l/m O-SO 6,3 km/h (2 Bft)
05.07.2009 12:00 23,0 C 72 % 1008,5 hPa 0,0 l/m SW 10,7 km/h (2 Bft)
05.07.2009 13:00 20,3 C 83 % 1008,5 hPa 0,2 l/m W-NW 13,3 km/h (3 Bft)
05.07.2009 14:00 17,7 C 90 % 1008,2 hPa 0,4 l/m NW 5,3 km/h (1 Bft)
05.07.2009 15:00 21,0 C 78 % 1007,9 hPa 0,0 l/m N-NO 9,4 km/h (2 Bft)
05.07.2009 16:00 20,9 C 76 % 1007,8 hPa 0,0 l/m NW 6,6 km/h (2 Bft)
05.07.2009 17:00 20,8 C 81 % 1007,5 hPa 0,0 l/m N-NO 4,9 km/h (1 Bft)
05.07.2009 18:00 21,4 C 79 % 1007,2 hPa 0,0 l/m N-NW 3,7 km/h (1 Bft)
05.07.2009 19:00 21,4 C 82 % 1007,0 hPa 0,0 l/m SO 2,1 km/h (1 Bft)
05.07.2009 20:00 20,9 C 85 % 1007,0 hPa 0,0 l/m SW 2,9 km/h (1 Bft)
05.07.2009 21:00 19,2 C 91 % 1007,4 hPa 0,0 l/m N 1,5 km/h (1 Bft)
05.07.2009 22:00 18,2 C 93 % 1007,8 hPa 0,0 l/m W-SW 4,2 km/h (1 Bft)
05.07.2009 23:00 18,6 C 90 % 1007,9 hPa 0,0 l/m SW 4,9 km/h (1 Bft)
Min-Datum _ 04.07.09 02.07.09 05.07.09 - - 29.06.09
_ Min-Zeit 06:45 16:35 19:45 - - 02:25
Minimum _ 13,3 C 41 % 1006,8 hPa - - 0,0 km/h (0 Bft)
Max-Datum _ 02.07.09 02.07.09 01.07.09 01.07.09 - 03.07.09
_ Max-Zeit 16:20 05:20 08:25 16:45 - 14:15
Maximum _ 28,1 C 100 % 1017,6 hPa 1,8 l/m - 33,8 km/h
W-NW (5 Bft)
Durchschnitt _ 19,9 C 81 % 1013,5 hPa #4,2 l/m N-NW 6,0 km/h (2 Bft)